createdAt,value
2018-02-21T00:01:18.817Z,99.43
2018-02-21T00:03:46.430Z,97.30
2018-02-21T00:06:14.096Z,106.87
2018-02-21T00:08:41.741Z,120.30
2018-02-21T00:11:09.569Z,134.77
2018-02-21T00:13:37.310Z,157.20
2018-02-21T00:16:05.009Z,131.17
2018-02-21T00:18:32.744Z,139.03
2018-02-21T00:21:00.575Z,142.97
2018-02-21T00:23:28.457Z,147.43
2018-02-21T00:25:56.066Z,146.63
2018-02-21T00:28:23.812Z,131.93
2018-02-21T00:30:51.593Z,134.83
2018-02-21T00:33:19.263Z,156.43
2018-02-21T00:35:47.135Z,121.33
2018-02-21T00:38:15.022Z,159.47
2018-02-21T00:40:42.694Z,148.37
2018-02-21T00:43:10.475Z,139.93
2018-02-21T00:45:38.359Z,142.60
2018-02-21T00:48:05.982Z,147.83
2018-02-21T00:50:33.606Z,152.73
2018-02-21T00:53:01.484Z,139.87
2018-02-21T00:55:29.262Z,143.27
2018-02-21T00:57:56.918Z,136.50
2018-02-21T01:00:24.818Z,141.87
2018-02-21T01:02:52.513Z,154.90
2018-02-21T01:05:20.167Z,113.93
2018-02-21T01:07:48.046Z,148.53
2018-02-21T01:10:15.705Z,136.57
2018-02-21T01:12:43.499Z,152.10
2018-02-21T01:15:11.277Z,141.43
2018-02-21T01:17:38.905Z,149.13
2018-02-21T01:20:06.732Z,151.47
2018-02-21T01:22:34.398Z,129.50
2018-02-21T01:25:02.133Z,142.60
2018-02-21T01:27:29.901Z,147.37
2018-02-21T01:29:57.640Z,148.53
2018-02-21T01:32:25.304Z,145.17
2018-02-21T01:34:53.096Z,126.63
2018-02-21T01:37:20.759Z,88.57
2018-02-21T01:39:48.645Z,143.00
2018-02-21T01:42:16.424Z,102.00
2018-02-21T01:44:44.103Z,119.67
2018-02-21T01:47:11.828Z,130.57
2018-02-21T01:49:39.452Z,138.33
2018-02-21T01:52:07.188Z,141.60
2018-02-21T01:54:34.889Z,153.87
2018-02-21T01:57:02.645Z,136.63
2018-02-21T01:59:30.351Z,134.63
2018-02-21T02:01:58.027Z,150.27
2018-02-21T02:04:26.733Z,128.63
2018-02-21T02:06:54.510Z,150.30
2018-02-21T02:09:22.187Z,116.03
2018-02-21T02:11:49.773Z,127.33
2018-02-21T02:14:18.252Z,141.83
2018-02-21T02:16:45.932Z,112.33
2018-02-21T02:19:13.540Z,144.50
2018-02-21T02:21:41.193Z,144.73
2018-02-21T02:24:08.854Z,105.47
2018-02-21T02:26:36.523Z,151.77
2018-02-21T02:29:04.205Z,157.63
2018-02-21T02:31:31.880Z,179.33
2018-02-21T02:33:59.465Z,145.77
2018-02-21T02:36:27.320Z,142.37
2018-02-21T02:39:06.777Z,155.60
2018-02-21T02:41:34.452Z,109.00
2018-02-21T02:44:02.126Z,152.90
2018-02-21T02:46:29.819Z,146.80
2018-02-21T02:48:57.413Z,148.70
2018-02-21T02:51:25.252Z,148.87
2018-02-21T02:53:52.867Z,151.90
2018-02-21T02:56:20.715Z,147.30
2018-02-21T02:58:48.479Z,162.17
2018-02-21T03:01:16.155Z,169.97
2018-02-21T03:03:43.846Z,158.83
2018-02-21T03:06:11.573Z,146.40
2018-02-21T03:08:39.297Z,154.37
2018-02-21T03:11:06.943Z,154.07
2018-02-21T03:13:34.852Z,175.57
2018-02-21T03:16:02.633Z,158.03
2018-02-21T03:18:30.307Z,178.40
2018-02-21T03:20:58.086Z,136.17
2018-02-21T03:23:25.757Z,155.47
2018-02-21T03:25:53.504Z,177.97
2018-02-21T03:28:21.212Z,166.47
2018-02-21T03:30:48.883Z,157.13
2018-02-21T03:33:16.511Z,156.00
2018-02-21T03:35:44.343Z,170.47
2018-02-21T03:38:11.996Z,176.50
2018-02-21T03:40:39.796Z,190.33
2018-02-21T03:43:07.543Z,171.87
2018-02-21T03:45:35.231Z,163.10
2018-02-21T03:48:02.872Z,156.47
2018-02-21T03:50:30.461Z,153.13
2018-02-21T03:52:58.176Z,172.40
2018-02-21T03:55:25.847Z,167.70
2018-02-21T03:57:53.525Z,183.13
2018-02-21T04:00:21.183Z,187.90
2018-02-21T04:02:48.975Z,148.03
2018-02-21T04:05:16.720Z,170.47
2018-02-21T04:07:44.349Z,165.63
2018-02-21T04:10:11.942Z,187.47
2018-02-21T04:12:39.676Z,184.50
2018-02-21T04:15:07.408Z,165.90
2018-02-21T04:17:35.148Z,166.10
2018-02-21T04:20:02.805Z,166.40
2018-02-21T04:22:30.479Z,174.57
2018-02-21T04:24:58.156Z,176.60
2018-02-21T04:27:25.891Z,163.23
2018-02-21T04:29:54.128Z,182.70
2018-02-21T04:32:21.785Z,159.33
2018-02-21T04:34:49.576Z,193.40
2018-02-21T04:37:17.197Z,181.07
2018-02-21T04:39:45.033Z,151.77
2018-02-21T04:42:12.704Z,132.20
2018-02-21T04:44:40.482Z,149.97
2018-02-21T04:47:08.104Z,155.00
2018-02-21T04:49:35.723Z,164.77
2018-02-21T04:52:03.611Z,177.83
2018-02-21T04:57:53.242Z,160.63
2018-02-21T05:00:22.040Z,130.17
2018-02-21T05:02:49.639Z,154.80
2018-02-21T05:05:17.480Z,176.83
2018-02-21T05:07:45.271Z,185.70
2018-02-21T05:10:12.889Z,170.97
2018-02-21T05:12:40.657Z,175.33
2018-02-21T05:15:08.285Z,191.40
2018-02-21T05:17:35.942Z,176.10
2018-02-21T05:20:03.639Z,187.57
2018-02-21T05:22:31.454Z,198.83
2018-02-21T05:24:59.414Z,173.47
2018-02-21T05:27:27.182Z,172.33
2018-02-21T05:29:54.863Z,152.30
2018-02-21T05:32:22.566Z,166.93
2018-02-21T05:34:50.291Z,177.93
2018-02-21T05:37:18.100Z,163.23
2018-02-21T05:39:45.872Z,159.23
2018-02-21T05:42:13.652Z,167.33
2018-02-21T05:44:41.322Z,161.97
2018-02-21T05:47:08.976Z,145.97
2018-02-21T05:49:36.784Z,167.70
2018-02-21T05:52:04.455Z,189.37
2018-02-21T05:54:32.337Z,161.17
2018-02-21T05:57:00.009Z,193.60
2018-02-21T05:59:27.668Z,166.80
2018-02-21T06:01:55.458Z,180.00
2018-02-21T06:04:23.251Z,196.73
2018-02-21T06:06:51.020Z,178.57
2018-02-21T06:09:18.797Z,186.47
2018-02-21T06:11:46.662Z,172.73
2018-02-21T06:14:14.257Z,198.17
2018-02-21T06:16:41.895Z,189.87
2018-02-21T06:19:09.703Z,195.90
2018-02-21T06:21:37.370Z,179.33
2018-02-21T06:24:05.039Z,169.67
2018-02-21T06:26:32.727Z,180.33
2018-02-21T06:29:00.406Z,172.67
2018-02-21T06:31:28.180Z,159.37
2018-02-21T06:33:55.797Z,143.70
2018-02-21T06:36:23.640Z,180.03
2018-02-21T06:38:51.401Z,186.37
2018-02-21T06:41:19.156Z,198.10
2018-02-21T06:43:46.761Z,186.33
2018-02-21T06:46:14.548Z,179.33
2018-02-21T06:48:42.324Z,152.13
2018-02-21T06:51:09.994Z,171.07
2018-02-21T06:53:37.770Z,156.67
2018-02-21T06:56:05.446Z,185.20
2018-02-21T06:58:33.128Z,188.00
2018-02-21T07:01:00.800Z,176.03
2018-02-21T07:03:28.577Z,188.40
2018-02-21T07:05:56.256Z,169.13
2018-02-21T07:08:23.849Z,165.20
2018-02-21T07:10:51.713Z,168.37
2018-02-21T07:13:19.378Z,178.83
2018-02-21T07:15:47.038Z,164.90
2018-02-21T07:18:14.802Z,176.80
2018-02-21T07:20:42.509Z,172.93
2018-02-21T07:23:10.181Z,168.50
2018-02-21T07:25:37.863Z,152.97
2018-02-21T07:28:05.540Z,141.07
2018-02-21T07:30:33.315Z,176.20
2018-02-21T07:33:00.998Z,185.27
2018-02-21T07:35:28.844Z,172.50
2018-02-21T07:37:56.544Z,182.97
2018-02-21T07:40:24.328Z,183.77
2018-02-21T07:42:52.204Z,176.07
2018-02-21T07:45:19.985Z,175.50
2018-02-21T07:47:47.590Z,158.80
2018-02-21T07:50:15.362Z,130.80
2018-02-21T07:52:43.007Z,169.57
2018-02-21T07:55:10.748Z,144.67
2018-02-21T07:57:38.566Z,159.03
2018-02-21T08:00:06.172Z,147.93
2018-02-21T08:02:33.915Z,138.83
2018-02-21T08:05:01.719Z,101.73
2018-02-21T08:07:29.476Z,161.97
2018-02-21T08:09:57.143Z,133.77
2018-02-21T08:12:24.819Z,155.53
2018-02-21T08:14:52.486Z,119.20
2018-02-21T08:17:20.173Z,142.37
2018-02-21T08:19:47.903Z,142.57
2018-02-21T08:22:15.732Z,153.00
2018-02-21T08:24:43.468Z,152.63
2018-02-21T08:27:11.174Z,145.60
2018-02-21T08:29:38.950Z,147.77
2018-02-21T08:32:06.637Z,140.47
2018-02-21T08:34:34.257Z,116.30
2018-02-21T08:37:01.990Z,112.73
2018-02-21T08:39:29.765Z,133.47
2018-02-21T08:41:57.857Z,137.53
2018-02-21T08:44:25.735Z,122.43
2018-02-21T08:46:53.609Z,144.10
2018-02-21T08:49:21.245Z,104.50
2018-02-21T08:51:48.955Z,107.30
2018-02-21T08:54:16.945Z,126.53
2018-02-21T08:56:44.534Z,146.07
2018-02-21T08:59:12.173Z,144.47
2018-02-21T09:01:39.970Z,150.43
2018-02-21T09:04:07.748Z,135.37
2018-02-21T09:06:35.476Z,152.70
2018-02-21T09:09:03.305Z,149.03
2018-02-21T09:11:31.081Z,107.13
2018-02-21T09:13:58.860Z,128.37
2018-02-21T09:16:26.582Z,125.13
2018-02-21T09:18:54.401Z,132.03
2018-02-21T09:21:22.135Z,135.93
2018-02-21T09:23:49.762Z,144.23
2018-02-21T09:26:17.431Z,90.07
2018-02-21T09:28:45.171Z,134.53
2018-02-21T09:31:12.901Z,138.43
2018-02-21T09:33:40.776Z,111.50
2018-02-21T09:36:08.365Z,95.20
2018-02-21T09:38:36.021Z,123.97
2018-02-21T09:41:03.748Z,136.20
2018-02-21T09:43:31.491Z,74.87
2018-02-21T09:45:59.254Z,113.53
2018-02-21T09:48:26.995Z,128.97
2018-02-21T09:50:54.812Z,120.47
2018-02-21T09:53:22.470Z,104.10
2018-02-21T09:55:50.157Z,101.77
2018-02-21T09:58:17.828Z,109.87
2018-02-21T10:00:45.716Z,106.83
2018-02-21T10:03:13.381Z,83.33
2018-02-21T10:05:40.984Z,108.67
2018-02-21T10:08:08.652Z,108.17
2018-02-21T10:10:36.316Z,101.20
2018-02-21T10:13:04.091Z,86.33
2018-02-21T10:15:31.830Z,103.37
2018-02-21T10:17:59.550Z,103.57
2018-02-21T10:20:27.431Z,106.23
2018-02-21T10:22:55.090Z,98.30
2018-02-21T10:25:22.771Z,94.07
2018-02-21T10:27:50.426Z,94.90
2018-02-21T10:30:18.022Z,79.17
2018-02-21T10:32:45.696Z,71.83
2018-02-21T10:35:13.328Z,61.40
2018-02-21T10:37:41.158Z,97.23
2018-02-21T10:40:09.027Z,104.67
2018-02-21T10:42:36.715Z,82.47
2018-02-21T10:45:04.492Z,90.83
2018-02-21T10:47:32.145Z,59.27
2018-02-21T10:49:59.913Z,78.23
2018-02-21T10:52:27.725Z,75.97
2018-02-21T10:54:55.402Z,87.40
2018-02-21T10:57:23.177Z,73.60
2018-02-21T10:59:50.850Z,82.40
2018-02-21T11:02:18.515Z,80.40
2018-02-21T11:04:46.198Z,53.33
2018-02-21T11:07:13.979Z,80.13
2018-02-21T11:09:41.615Z,83.63
2018-02-21T11:12:09.434Z,62.27
2018-02-21T11:14:37.017Z,70.77
2018-02-21T11:17:04.600Z,74.20
2018-02-21T11:19:32.236Z,75.80
2018-02-21T11:22:00.031Z,63.77
2018-02-21T11:24:27.810Z,60.90
2018-02-21T11:26:55.466Z,66.57
2018-02-21T11:29:23.045Z,69.50
2018-02-21T11:31:50.784Z,65.57
2018-02-21T11:34:19.229Z,81.83
2018-02-21T11:36:46.845Z,60.73
2018-02-21T11:39:14.578Z,77.10
2018-02-21T11:41:42.297Z,72.70
2018-02-21T11:44:09.934Z,71.83
2018-02-21T11:46:37.707Z,37.23
2018-02-21T11:49:05.486Z,74.53
2018-02-21T11:51:33.239Z,56.13
2018-02-21T11:54:00.940Z,54.93
2018-02-21T11:56:28.598Z,77.13
2018-02-21T11:58:56.395Z,64.87
2018-02-21T12:01:24.171Z,68.03
2018-02-21T12:03:51.831Z,68.73
2018-02-21T12:06:19.727Z,77.13
2018-02-21T12:08:47.307Z,83.17
2018-02-21T12:11:14.971Z,65.30
2018-02-21T12:13:42.648Z,66.70
2018-02-21T12:16:10.320Z,66.60
2018-02-21T12:18:38.103Z,54.67
2018-02-21T12:21:05.937Z,78.13
2018-02-21T12:23:33.541Z,58.77
2018-02-21T12:26:01.334Z,36.93
2018-02-21T12:28:29.216Z,37.80
2018-02-21T12:30:56.993Z,60.37
2018-02-21T12:33:24.772Z,75.13
2018-02-21T12:35:52.545Z,42.33
2018-02-21T12:38:20.425Z,36.43
2018-02-21T12:40:53.722Z,69.00
2018-02-21T12:43:21.514Z,57.90
2018-02-21T12:45:49.287Z,57.60
2018-02-21T12:48:16.878Z,59.57
2018-02-21T12:50:44.746Z,57.60
2018-02-21T12:53:12.335Z,53.07
2018-02-21T12:55:39.928Z,57.60
2018-02-21T12:58:07.657Z,69.57
2018-02-21T13:00:35.240Z,65.53
2018-02-21T13:03:02.912Z,66.00
2018-02-21T13:05:30.594Z,70.43
2018-02-21T13:07:58.253Z,73.93
2018-02-21T13:10:26.046Z,65.90
2018-02-21T13:12:53.723Z,49.83
2018-02-21T13:15:21.383Z,66.53
2018-02-21T13:17:49.140Z,72.47
2018-02-21T13:20:16.958Z,53.03
2018-02-21T13:22:44.630Z,77.27
2018-02-21T13:25:12.258Z,71.33
2018-02-21T13:27:39.986Z,55.07
2018-02-21T13:30:07.653Z,62.03
2018-02-21T13:32:35.385Z,69.60
2018-02-21T13:35:03.209Z,67.77
2018-02-21T13:37:30.829Z,53.90
2018-02-21T13:39:58.562Z,71.57
2018-02-21T13:42:26.181Z,57.27
2018-02-21T13:44:53.913Z,40.17
2018-02-21T13:47:21.541Z,52.57
2018-02-21T13:49:49.146Z,54.43
2018-02-21T13:52:16.832Z,71.10
2018-02-21T13:54:44.507Z,50.40
2018-02-21T13:57:12.249Z,56.67
2018-02-21T13:59:40.069Z,63.50
2018-02-21T14:02:07.732Z,43.87
2018-02-21T14:04:36.335Z,61.20
2018-02-21T14:07:04.010Z,30.67
2018-02-21T14:09:31.687Z,45.03
2018-02-21T14:11:59.365Z,61.37
2018-02-21T14:14:27.140Z,52.63
2018-02-21T14:16:54.716Z,44.63
2018-02-21T14:19:22.387Z,47.17
2018-02-21T14:21:50.113Z,48.37
2018-02-21T14:24:17.841Z,57.17
2018-02-21T14:26:45.511Z,56.03
2018-02-21T14:29:13.187Z,63.10
2018-02-21T14:31:40.930Z,67.50
2018-02-21T14:34:08.648Z,44.93
2018-02-21T14:36:36.313Z,59.40
2018-02-21T14:39:04.102Z,57.67
2018-02-21T14:41:31.884Z,43.63
2018-02-21T14:43:59.659Z,49.27
2018-02-21T14:46:27.271Z,53.60
2018-02-21T14:48:55.012Z,52.30
2018-02-21T14:51:22.682Z,54.80
2018-02-21T14:53:50.362Z,47.50
2018-02-21T14:56:18.249Z,67.40
2018-02-21T14:58:46.020Z,59.90
2018-02-21T15:01:13.605Z,54.20
2018-02-21T15:03:41.372Z,60.80
2018-02-21T15:06:08.992Z,77.37
2018-02-21T15:08:36.724Z,75.57
2018-02-21T15:11:04.491Z,57.67
2018-02-21T15:13:32.228Z,77.17
2018-02-21T15:15:59.829Z,56.43
2018-02-21T15:18:27.443Z,43.93
2018-02-21T15:20:55.100Z,44.57
2018-02-21T15:23:22.985Z,40.60
2018-02-21T15:25:50.652Z,49.10
2018-02-21T15:28:18.237Z,50.17
2018-02-21T15:30:46.002Z,57.70
2018-02-21T15:33:13.585Z,44.73
2018-02-21T15:35:41.356Z,57.30
2018-02-21T15:38:09.018Z,48.87
2018-02-21T15:40:36.763Z,48.17
2018-02-21T15:43:04.365Z,55.17
2018-02-21T15:45:32.148Z,51.07
2018-02-21T15:47:59.781Z,57.33
2018-02-21T15:50:27.438Z,67.43
2018-02-21T15:52:55.289Z,64.73
2018-02-21T15:55:22.966Z,43.60
2018-02-21T15:57:50.637Z,85.90
2018-02-21T16:00:18.296Z,67.90
2018-02-21T16:02:45.980Z,63.40
2018-02-21T16:05:13.873Z,50.37
2018-02-21T16:07:41.648Z,51.37
2018-02-21T16:10:09.382Z,54.63
2018-02-21T16:12:37.207Z,48.87
2018-02-21T16:15:04.985Z,67.07
2018-02-21T16:17:32.661Z,50.97
2018-02-21T16:20:00.402Z,59.27
2018-02-21T16:22:28.114Z,70.70
2018-02-21T16:24:55.771Z,78.53
2018-02-21T16:27:23.458Z,71.10
2018-02-21T16:29:51.216Z,67.83
2018-02-21T16:32:19.004Z,71.77
2018-02-21T16:34:46.587Z,81.23
2018-02-21T16:37:14.249Z,70.00
2018-02-21T16:39:42.044Z,80.23
2018-02-21T16:42:09.773Z,67.10
2018-02-21T16:44:37.394Z,61.50
2018-02-21T16:47:05.062Z,89.60
2018-02-21T16:49:32.794Z,80.17
2018-02-21T16:52:00.627Z,79.30
2018-02-21T16:54:28.291Z,66.53
2018-02-21T16:56:56.068Z,74.23
2018-02-21T16:59:23.853Z,69.87
2018-02-21T17:01:51.634Z,80.17
2018-02-21T17:04:19.323Z,79.83
2018-02-21T17:06:47.087Z,71.17
2018-02-21T17:09:14.697Z,53.73
2018-02-21T17:11:42.542Z,76.57
2018-02-21T17:14:10.199Z,63.50
2018-02-21T17:16:37.893Z,77.20
2018-02-21T17:19:05.568Z,88.43
2018-02-21T17:21:33.192Z,83.90
2018-02-21T17:24:00.921Z,82.50
2018-02-21T17:26:28.770Z,76.40
2018-02-21T17:28:56.475Z,88.93
2018-02-21T17:31:24.153Z,86.67
2018-02-21T17:33:51.930Z,88.10
2018-02-21T17:36:19.513Z,94.63
2018-02-21T17:38:47.121Z,93.43
2018-02-21T17:41:20.381Z,91.23
2018-02-21T17:43:48.039Z,117.47
2018-02-21T17:46:15.736Z,103.07
2018-02-21T17:48:43.361Z,161.10
2018-02-21T17:51:11.012Z,213.50
2018-02-21T17:53:38.645Z,91.37
2018-02-21T17:56:06.340Z,98.30
2018-02-21T17:58:34.115Z,80.30
2018-02-21T18:01:01.898Z,90.80
2018-02-21T18:03:29.500Z,86.10
2018-02-21T18:05:57.087Z,88.80
2018-02-21T18:08:24.915Z,91.77
2018-02-21T18:10:52.590Z,82.93
2018-02-21T18:13:20.267Z,79.03
2018-02-21T18:15:47.936Z,86.13
2018-02-21T18:18:15.560Z,69.77
2018-02-21T18:20:43.293Z,82.23
2018-02-21T18:23:10.968Z,81.13
2018-02-21T18:25:38.752Z,98.27
2018-02-21T18:28:06.639Z,87.73
2018-02-21T18:30:34.509Z,96.27
2018-02-21T18:33:02.149Z,94.10
2018-02-21T18:35:29.855Z,94.03
2018-02-21T18:37:57.639Z,103.67
2018-02-21T18:40:25.714Z,112.53
2018-02-21T18:42:53.316Z,101.73
2018-02-21T18:45:21.177Z,101.03
2018-02-21T18:47:48.902Z,77.23
2018-02-21T18:50:16.819Z,109.03
2018-02-21T18:52:44.424Z,96.53
2018-02-21T18:55:12.184Z,100.10
2018-02-21T18:57:39.836Z,93.43
2018-02-21T19:00:07.537Z,113.37
2018-02-21T19:02:35.198Z,91.93
2018-02-21T19:05:02.988Z,93.60
2018-02-21T19:07:30.761Z,93.80
2018-02-21T19:09:58.544Z,93.57
2018-02-21T19:12:26.327Z,83.53
2018-02-21T19:14:54.014Z,109.67
2018-02-21T19:17:21.726Z,105.70
2018-02-21T19:19:49.323Z,101.23
2018-02-21T19:22:17.021Z,121.70
2018-02-21T19:24:44.802Z,98.97
2018-02-21T19:27:12.484Z,126.93
2018-02-21T19:29:40.151Z,125.00
2018-02-21T19:32:07.934Z,103.50
2018-02-21T19:34:35.583Z,89.63
2018-02-21T19:37:03.280Z,86.10
2018-02-21T19:39:30.950Z,87.37
2018-02-21T19:41:58.688Z,82.67
2018-02-21T19:44:26.278Z,101.47
2018-02-21T19:46:54.074Z,80.57
2018-02-21T19:49:21.760Z,91.33
2018-02-21T19:51:49.439Z,91.30
2018-02-21T19:54:17.316Z,98.70
2018-02-21T19:56:45.096Z,98.93
2018-02-21T19:59:12.771Z,87.10
2018-02-21T20:01:40.521Z,102.87
2018-02-21T20:04:08.220Z,84.07
2018-02-21T20:06:35.808Z,93.00
2018-02-21T20:09:03.499Z,108.60
2018-02-21T20:11:31.355Z,91.33
2018-02-21T20:13:59.127Z,93.37
2018-02-21T20:16:26.913Z,98.43
2018-02-21T20:18:54.690Z,90.07
2018-02-21T20:21:22.319Z,108.07
2018-02-21T20:23:50.038Z,112.17
2018-02-21T20:26:17.800Z,81.37
2018-02-21T20:28:45.397Z,86.97
2018-02-21T20:31:13.062Z,90.93
2018-02-21T20:33:40.944Z,100.93
2018-02-21T20:36:08.727Z,94.50
2018-02-21T20:38:36.398Z,92.27
2018-02-21T20:41:04.280Z,92.93
2018-02-21T20:43:32.096Z,90.00
2018-02-21T20:45:59.821Z,91.93
2018-02-21T20:48:27.610Z,85.83
2018-02-21T20:50:55.390Z,90.37
2018-02-21T20:53:23.168Z,95.50
2018-02-21T20:55:50.928Z,82.97
2018-02-21T20:58:18.611Z,88.93
2018-02-21T21:00:46.210Z,88.10
2018-02-21T21:03:13.877Z,89.27
2018-02-21T21:05:41.539Z,74.13
2018-02-21T21:08:09.145Z,92.17
2018-02-21T21:10:36.812Z,78.53
2018-02-21T21:13:04.555Z,94.23
2018-02-21T21:15:32.246Z,80.70
2018-02-21T21:18:00.025Z,80.50
2018-02-21T21:20:27.690Z,74.43
2018-02-21T21:22:55.291Z,84.50
2018-02-21T21:25:23.100Z,92.40
2018-02-21T21:27:50.706Z,117.90
2018-02-21T21:30:18.510Z,76.77
2018-02-21T21:32:46.182Z,112.50
2018-02-21T21:35:13.844Z,97.10
2018-02-21T21:37:41.587Z,94.20
2018-02-21T21:40:09.307Z,98.17
2018-02-21T21:42:37.038Z,90.17
2018-02-21T21:45:04.743Z,90.10
2018-02-21T21:47:32.429Z,70.93
2018-02-21T21:50:03.418Z,69.37
2018-02-21T21:52:31.270Z,83.60
2018-02-21T21:54:59.681Z,75.00
2018-02-21T21:57:27.436Z,85.93
2018-02-21T21:59:55.119Z,74.80
2018-02-21T22:02:22.789Z,63.70
2018-02-21T22:04:51.279Z,64.80
2018-02-21T22:07:18.877Z,82.93
2018-02-21T22:09:46.508Z,69.17
2018-02-21T22:12:14.284Z,61.13
2018-02-21T22:14:41.880Z,80.33
2018-02-21T22:17:09.664Z,77.10
2018-02-21T22:19:37.548Z,60.67
2018-02-21T22:22:05.136Z,69.33
2018-02-21T22:24:32.774Z,69.23
2018-02-21T22:27:00.572Z,50.47
2018-02-21T22:29:28.342Z,50.97
2018-02-21T22:31:56.129Z,64.27
2018-02-21T22:34:23.796Z,82.97
2018-02-21T22:36:51.472Z,72.77
2018-02-21T22:39:19.151Z,65.97
2018-02-21T22:41:46.759Z,75.50
2018-02-21T22:44:14.470Z,46.10
2018-02-21T22:46:42.165Z,68.30
2018-02-21T22:49:09.962Z,76.00
2018-02-21T22:51:37.840Z,58.37
2018-02-21T22:54:05.461Z,61.20
2018-02-21T22:56:33.118Z,73.13
2018-02-21T22:59:00.755Z,46.93
2018-02-21T23:01:28.426Z,44.40
2018-02-21T23:03:56.179Z,55.20
2018-02-21T23:06:23.820Z,62.73
2018-02-21T23:08:51.438Z,64.37
2018-02-21T23:11:19.244Z,74.87
2018-02-21T23:13:47.068Z,60.30
2018-02-21T23:16:14.714Z,39.10
2018-02-21T23:18:42.314Z,69.10
2018-02-21T23:21:09.913Z,68.67
2018-02-21T23:23:37.619Z,66.23
2018-02-21T23:26:05.345Z,58.00
2018-02-21T23:28:32.955Z,74.43
2018-02-21T23:31:00.749Z,64.40
2018-02-21T23:33:28.399Z,62.87
2018-02-21T23:35:56.203Z,76.37
2018-02-21T23:38:23.886Z,59.90
2018-02-21T23:40:51.655Z,70.40
2018-02-21T23:43:19.514Z,70.23
2018-02-21T23:45:47.138Z,62.40
2018-02-21T23:48:15.093Z,65.83
2018-02-21T23:50:42.695Z,56.57
2018-02-21T23:53:10.342Z,65.00
2018-02-21T23:55:38.218Z,58.30
2018-02-21T23:58:05.813Z,72.67
